sensor_id;sensor_type;location;lat;lon;timestamp;P1;durP1;ratioP1;P2;durP2;ratioP2
23181;SDS011;11759;51.282;6.642;2022-12-07T00:01:46;52.10;;;25.92;;
23181;SDS011;11759;51.282;6.642;2022-12-07T00:04:14;55.22;;;27.52;;
23181;SDS011;11759;51.282;6.642;2022-12-07T00:06:42;61.90;;;28.15;;
23181;SDS011;11759;51.282;6.642;2022-12-07T00:09:11;69.43;;;29.02;;
23181;SDS011;11759;51.282;6.642;2022-12-07T00:11:40;60.67;;;30.08;;
23181;SDS011;11759;51.282;6.642;2022-12-07T00:14:07;52.90;;;27.63;;
23181;SDS011;11759;51.282;6.642;2022-12-07T00:16:36;64.90;;;30.55;;
23181;SDS011;11759;51.282;6.642;2022-12-07T00:19:03;65.78;;;29.85;;
23181;SDS011;11759;51.282;6.642;2022-12-07T00:21:31;55.58;;;29.67;;
23181;SDS011;11759;51.282;6.642;2022-12-07T00:23:59;54.13;;;28.08;;
23181;SDS011;11759;51.282;6.642;2022-12-07T00:26:30;57.30;;;29.92;;
23181;SDS011;11759;51.282;6.642;2022-12-07T00:29:03;65.25;;;30.65;;
23181;SDS011;11759;51.282;6.642;2022-12-07T00:31:34;70.75;;;32.40;;
23181;SDS011;11759;51.282;6.642;2022-12-07T00:34:06;57.72;;;30.98;;
23181;SDS011;11759;51.282;6.642;2022-12-07T00:36:33;64.40;;;32.05;;
23181;SDS011;11759;51.282;6.642;2022-12-07T00:39:00;63.22;;;31.05;;
23181;SDS011;11759;51.282;6.642;2022-12-07T00:41:28;62.28;;;30.55;;
23181;SDS011;11759;51.282;6.642;2022-12-07T00:43:55;69.57;;;32.15;;
23181;SDS011;11759;51.282;6.642;2022-12-07T00:46:22;58.67;;;31.17;;
23181;SDS011;11759;51.282;6.642;2022-12-07T00:48:50;67.40;;;32.55;;
23181;SDS011;11759;51.282;6.642;2022-12-07T00:51:18;71.18;;;31.23;;
23181;SDS011;11759;51.282;6.642;2022-12-07T00:53:46;59.38;;;30.15;;
23181;SDS011;11759;51.282;6.642;2022-12-07T00:56:14;69.05;;;33.17;;
23181;SDS011;11759;51.282;6.642;2022-12-07T00:58:42;62.05;;;31.17;;
23181;SDS011;11759;51.282;6.642;2022-12-07T01:01:09;63.42;;;31.33;;
23181;SDS011;11759;51.282;6.642;2022-12-07T01:03:38;61.65;;;31.73;;
23181;SDS011;11759;51.282;6.642;2022-12-07T01:06:05;63.10;;;33.08;;
23181;SDS011;11759;51.282;6.642;2022-12-07T01:08:33;61.50;;;32.45;;
23181;SDS011;11759;51.282;6.642;2022-12-07T01:11:01;72.72;;;33.03;;
23181;SDS011;11759;51.282;6.642;2022-12-07T01:13:32;64.53;;;32.55;;
23181;SDS011;11759;51.282;6.642;2022-12-07T01:16:00;69.35;;;33.35;;
23181;SDS011;11759;51.282;6.642;2022-12-07T01:18:29;70.20;;;33.35;;
23181;SDS011;11759;51.282;6.642;2022-12-07T01:20:57;59.83;;;31.40;;
23181;SDS011;11759;51.282;6.642;2022-12-07T01:23:35;68.50;;;32.42;;
23181;SDS011;11759;51.282;6.642;2022-12-07T01:26:03;71.40;;;33.53;;
23181;SDS011;11759;51.282;6.642;2022-12-07T01:28:33;56.17;;;32.47;;
23181;SDS011;11759;51.282;6.642;2022-12-07T01:31:01;70.43;;;33.10;;
23181;SDS011;11759;51.282;6.642;2022-12-07T01:33:34;63.47;;;31.73;;
23181;SDS011;11759;51.282;6.642;2022-12-07T01:36:05;72.35;;;33.90;;
23181;SDS011;11759;51.282;6.642;2022-12-07T01:38:42;69.25;;;34.50;;
23181;SDS011;11759;51.282;6.642;2022-12-07T01:41:10;64.10;;;32.30;;
23181;SDS011;11759;51.282;6.642;2022-12-07T01:44:07;75.90;;;33.42;;
23181;SDS011;11759;51.282;6.642;2022-12-07T01:46:36;70.07;;;35.33;;
23181;SDS011;11759;51.282;6.642;2022-12-07T01:49:06;69.57;;;35.22;;
23181;SDS011;11759;51.282;6.642;2022-12-07T01:51:35;72.00;;;36.00;;
23181;SDS011;11759;51.282;6.642;2022-12-07T01:54:03;63.70;;;33.22;;
23181;SDS011;11759;51.282;6.642;2022-12-07T01:56:30;72.75;;;37.03;;
23181;SDS011;11759;51.282;6.642;2022-12-07T01:58:58;75.03;;;36.33;;
23181;SDS011;11759;51.282;6.642;2022-12-07T02:01:26;70.90;;;35.35;;
23181;SDS011;11759;51.282;6.642;2022-12-07T02:03:53;69.80;;;34.92;;
23181;SDS011;11759;51.282;6.642;2022-12-07T02:06:20;80.30;;;37.28;;
23181;SDS011;11759;51.282;6.642;2022-12-07T02:08:49;79.43;;;37.50;;
23181;SDS011;11759;51.282;6.642;2022-12-07T02:11:16;76.72;;;36.03;;
23181;SDS011;11759;51.282;6.642;2022-12-07T02:13:43;77.03;;;38.15;;
23181;SDS011;11759;51.282;6.642;2022-12-07T02:32:48;69.37;;;35.90;;
23181;SDS011;11759;51.282;6.642;2022-12-07T02:35:21;76.68;;;36.10;;
23181;SDS011;11759;51.282;6.642;2022-12-07T02:38:02;77.03;;;38.33;;
23181;SDS011;11759;51.282;6.642;2022-12-07T02:43:28;86.18;;;37.72;;
23181;SDS011;11759;51.282;6.642;2022-12-07T02:46:04;72.05;;;35.92;;
23181;SDS011;11759;51.282;6.642;2022-12-07T02:48:35;70.20;;;36.22;;
23181;SDS011;11759;51.282;6.642;2022-12-07T02:51:02;84.55;;;39.60;;
23181;SDS011;11759;51.282;6.642;2022-12-07T02:56:03;76.45;;;38.38;;
23181;SDS011;11759;51.282;6.642;2022-12-07T03:04:37;77.93;;;37.78;;
23181;SDS011;11759;51.282;6.642;2022-12-07T03:07:17;72.30;;;36.20;;
23181;SDS011;11759;51.282;6.642;2022-12-07T03:12:30;82.47;;;36.72;;
23181;SDS011;11759;51.282;6.642;2022-12-07T03:15:01;64.18;;;33.78;;
23181;SDS011;11759;51.282;6.642;2022-12-07T03:17:33;73.90;;;35.30;;
23181;SDS011;11759;51.282;6.642;2022-12-07T03:20:03;69.35;;;35.92;;
23181;SDS011;11759;51.282;6.642;2022-12-07T03:22:32;76.13;;;35.10;;
23181;SDS011;11759;51.282;6.642;2022-12-07T03:25:02;72.07;;;36.15;;
23181;SDS011;11759;51.282;6.642;2022-12-07T03:27:37;72.80;;;35.83;;
23181;SDS011;11759;51.282;6.642;2022-12-07T03:32:53;81.28;;;34.65;;
23181;SDS011;11759;51.282;6.642;2022-12-07T03:35:28;71.80;;;34.30;;
23181;SDS011;11759;51.282;6.642;2022-12-07T03:38:04;75.50;;;37.05;;
23181;SDS011;11759;51.282;6.642;2022-12-07T03:40:47;72.85;;;34.63;;
23181;SDS011;11759;51.282;6.642;2022-12-07T03:43:19;64.50;;;34.50;;
23181;SDS011;11759;51.282;6.642;2022-12-07T03:45:59;70.68;;;34.70;;
23181;SDS011;11759;51.282;6.642;2022-12-07T03:48:33;74.45;;;36.22;;
23181;SDS011;11759;51.282;6.642;2022-12-07T03:51:08;74.18;;;34.03;;
23181;SDS011;11759;51.282;6.642;2022-12-07T03:53:42;68.85;;;34.95;;
23181;SDS011;11759;51.282;6.642;2022-12-07T03:56:13;68.30;;;34.50;;
23181;SDS011;11759;51.282;6.642;2022-12-07T03:58:40;78.30;;;35.42;;
23181;SDS011;11759;51.282;6.642;2022-12-07T04:01:08;74.00;;;34.17;;
23181;SDS011;11759;51.282;6.642;2022-12-07T04:03:34;75.40;;;32.97;;
23181;SDS011;11759;51.282;6.642;2022-12-07T04:06:01;64.63;;;31.95;;
23181;SDS011;11759;51.282;6.642;2022-12-07T04:08:28;69.35;;;33.65;;
23181;SDS011;11759;51.282;6.642;2022-12-07T04:10:55;63.17;;;30.38;;
23181;SDS011;11759;51.282;6.642;2022-12-07T04:13:21;66.97;;;31.52;;
23181;SDS011;11759;51.282;6.642;2022-12-07T04:15:48;71.65;;;31.73;;
23181;SDS011;11759;51.282;6.642;2022-12-07T04:18:15;71.88;;;33.80;;
23181;SDS011;11759;51.282;6.642;2022-12-07T04:20:41;71.45;;;32.95;;
23181;SDS011;11759;51.282;6.642;2022-12-07T04:23:08;69.47;;;30.80;;
23181;SDS011;11759;51.282;6.642;2022-12-07T04:25:35;69.40;;;30.65;;
23181;SDS011;11759;51.282;6.642;2022-12-07T04:28:01;64.00;;;30.55;;
23181;SDS011;11759;51.282;6.642;2022-12-07T04:30:28;72.03;;;31.38;;
23181;SDS011;11759;51.282;6.642;2022-12-07T04:32:55;64.68;;;29.60;;
23181;SDS011;11759;51.282;6.642;2022-12-07T04:35:22;62.53;;;30.35;;
23181;SDS011;11759;51.282;6.642;2022-12-07T04:37:49;55.78;;;29.85;;
23181;SDS011;11759;51.282;6.642;2022-12-07T04:40:15;59.47;;;29.27;;
23181;SDS011;11759;51.282;6.642;2022-12-07T04:42:42;59.20;;;29.50;;
23181;SDS011;11759;51.282;6.642;2022-12-07T04:45:09;58.97;;;29.95;;
23181;SDS011;11759;51.282;6.642;2022-12-07T04:47:36;55.80;;;27.55;;
23181;SDS011;11759;51.282;6.642;2022-12-07T04:50:03;58.42;;;28.95;;
23181;SDS011;11759;51.282;6.642;2022-12-07T04:52:31;56.10;;;27.33;;
23181;SDS011;11759;51.282;6.642;2022-12-07T04:54:58;60.53;;;28.75;;
23181;SDS011;11759;51.282;6.642;2022-12-07T04:57:25;53.80;;;28.05;;
23181;SDS011;11759;51.282;6.642;2022-12-07T04:59:51;60.65;;;26.20;;
23181;SDS011;11759;51.282;6.642;2022-12-07T05:02:18;65.05;;;27.70;;
23181;SDS011;11759;51.282;6.642;2022-12-07T05:04:45;55.22;;;24.60;;
23181;SDS011;11759;51.282;6.642;2022-12-07T05:07:11;57.53;;;26.27;;
23181;SDS011;11759;51.282;6.642;2022-12-07T05:09:38;55.38;;;26.55;;
23181;SDS011;11759;51.282;6.642;2022-12-07T05:12:05;55.30;;;25.67;;
23181;SDS011;11759;51.282;6.642;2022-12-07T05:14:32;48.97;;;24.13;;
23181;SDS011;11759;51.282;6.642;2022-12-07T05:16:58;51.60;;;25.02;;
23181;SDS011;11759;51.282;6.642;2022-12-07T05:19:25;59.42;;;25.00;;
23181;SDS011;11759;51.282;6.642;2022-12-07T05:21:52;50.88;;;24.67;;
23181;SDS011;11759;51.282;6.642;2022-12-07T05:24:19;59.80;;;25.38;;
23181;SDS011;11759;51.282;6.642;2022-12-07T05:26:47;57.30;;;25.88;;
23181;SDS011;11759;51.282;6.642;2022-12-07T05:29:15;52.97;;;24.45;;
23181;SDS011;11759;51.282;6.642;2022-12-07T05:31:43;54.78;;;25.52;;
23181;SDS011;11759;51.282;6.642;2022-12-07T05:34:10;53.28;;;25.67;;
23181;SDS011;11759;51.282;6.642;2022-12-07T05:36:37;48.05;;;24.90;;
23181;SDS011;11759;51.282;6.642;2022-12-07T05:39:04;48.28;;;23.77;;
23181;SDS011;11759;51.282;6.642;2022-12-07T05:41:31;50.22;;;24.38;;
23181;SDS011;11759;51.282;6.642;2022-12-07T05:44:16;57.78;;;24.75;;
23181;SDS011;11759;51.282;6.642;2022-12-07T05:46:44;57.28;;;23.20;;
23181;SDS011;11759;51.282;6.642;2022-12-07T05:49:11;49.45;;;23.25;;
23181;SDS011;11759;51.282;6.642;2022-12-07T05:51:38;59.72;;;25.00;;
23181;SDS011;11759;51.282;6.642;2022-12-07T05:54:04;49.10;;;24.02;;
23181;SDS011;11759;51.282;6.642;2022-12-07T05:56:31;47.72;;;24.40;;
23181;SDS011;11759;51.282;6.642;2022-12-07T05:58:58;43.83;;;24.15;;
23181;SDS011;11759;51.282;6.642;2022-12-07T06:01:43;50.25;;;23.58;;
23181;SDS011;11759;51.282;6.642;2022-12-07T06:04:10;47.30;;;22.02;;
23181;SDS011;11759;51.282;6.642;2022-12-07T06:06:37;55.13;;;22.63;;
23181;SDS011;11759;51.282;6.642;2022-12-07T06:09:03;43.65;;;23.58;;
23181;SDS011;11759;51.282;6.642;2022-12-07T06:11:30;44.13;;;23.50;;
23181;SDS011;11759;51.282;6.642;2022-12-07T06:14:15;46.42;;;23.42;;
23181;SDS011;11759;51.282;6.642;2022-12-07T06:16:42;54.60;;;23.65;;
23181;SDS011;11759;51.282;6.642;2022-12-07T06:19:09;55.60;;;23.85;;
23181;SDS011;11759;51.282;6.642;2022-12-07T06:21:36;48.97;;;22.83;;
23181;SDS011;11759;51.282;6.642;2022-12-07T06:24:03;56.83;;;24.38;;
23181;SDS011;11759;51.282;6.642;2022-12-07T06:26:29;42.63;;;23.60;;
23181;SDS011;11759;51.282;6.642;2022-12-07T06:28:56;53.67;;;24.58;;
23181;SDS011;11759;51.282;6.642;2022-12-07T06:31:23;51.17;;;24.15;;
23181;SDS011;11759;51.282;6.642;2022-12-07T06:33:50;57.60;;;24.77;;
23181;SDS011;11759;51.282;6.642;2022-12-07T06:36:17;56.25;;;24.00;;
23181;SDS011;11759;51.282;6.642;2022-12-07T06:38:52;51.22;;;24.30;;
23181;SDS011;11759;51.282;6.642;2022-12-07T06:41:20;46.83;;;23.08;;
23181;SDS011;11759;51.282;6.642;2022-12-07T06:43:47;58.58;;;24.75;;
23181;SDS011;11759;51.282;6.642;2022-12-07T06:46:21;52.75;;;22.90;;
23181;SDS011;11759;51.282;6.642;2022-12-07T06:48:48;45.92;;;23.27;;
23181;SDS011;11759;51.282;6.642;2022-12-07T06:51:15;45.88;;;24.17;;
23181;SDS011;11759;51.282;6.642;2022-12-07T06:53:42;51.63;;;23.83;;
23181;SDS011;11759;51.282;6.642;2022-12-07T06:56:09;52.45;;;23.75;;
23181;SDS011;11759;51.282;6.642;2022-12-07T06:58:36;42.65;;;22.77;;
23181;SDS011;11759;51.282;6.642;2022-12-07T07:01:03;43.70;;;22.05;;
23181;SDS011;11759;51.282;6.642;2022-12-07T07:03:38;50.28;;;22.40;;
23181;SDS011;11759;51.282;6.642;2022-12-07T07:06:05;48.58;;;24.35;;
23181;SDS011;11759;51.282;6.642;2022-12-07T07:08:34;45.70;;;21.52;;
23181;SDS011;11759;51.282;6.642;2022-12-07T07:11:01;45.17;;;21.58;;
23181;SDS011;11759;51.282;6.642;2022-12-07T07:13:28;42.65;;;20.65;;
23181;SDS011;11759;51.282;6.642;2022-12-07T07:15:55;44.45;;;22.45;;
23181;SDS011;11759;51.282;6.642;2022-12-07T07:18:22;48.40;;;21.88;;
23181;SDS011;11759;51.282;6.642;2022-12-07T07:20:50;44.40;;;21.65;;
23181;SDS011;11759;51.282;6.642;2022-12-07T07:23:17;42.97;;;20.42;;
23181;SDS011;11759;51.282;6.642;2022-12-07T07:25:45;46.88;;;20.42;;
23181;SDS011;11759;51.282;6.642;2022-12-07T07:28:12;44.78;;;22.23;;
23181;SDS011;11759;51.282;6.642;2022-12-07T07:30:39;48.53;;;21.45;;
23181;SDS011;11759;51.282;6.642;2022-12-07T07:33:06;45.72;;;21.45;;
23181;SDS011;11759;51.282;6.642;2022-12-07T07:35:34;41.45;;;20.05;;
23181;SDS011;11759;51.282;6.642;2022-12-07T07:38:01;46.83;;;22.65;;
23181;SDS011;11759;51.282;6.642;2022-12-07T07:40:27;49.08;;;24.20;;
23181;SDS011;11759;51.282;6.642;2022-12-07T07:42:57;41.80;;;21.25;;
23181;SDS011;11759;51.282;6.642;2022-12-07T07:45:24;45.95;;;20.23;;
23181;SDS011;11759;51.282;6.642;2022-12-07T07:47:52;40.72;;;19.80;;
23181;SDS011;11759;51.282;6.642;2022-12-07T07:50:19;44.38;;;21.63;;
23181;SDS011;11759;51.282;6.642;2022-12-07T07:52:47;50.03;;;21.77;;
23181;SDS011;11759;51.282;6.642;2022-12-07T07:55:14;46.40;;;21.08;;
23181;SDS011;11759;51.282;6.642;2022-12-07T07:57:41;48.95;;;21.55;;
23181;SDS011;11759;51.282;6.642;2022-12-07T08:00:09;41.30;;;19.38;;
23181;SDS011;11759;51.282;6.642;2022-12-07T08:02:38;44.90;;;20.33;;
23181;SDS011;11759;51.282;6.642;2022-12-07T08:05:05;43.03;;;21.15;;
23181;SDS011;11759;51.282;6.642;2022-12-07T08:07:33;44.17;;;21.70;;
23181;SDS011;11759;51.282;6.642;2022-12-07T08:10:00;47.88;;;20.25;;
23181;SDS011;11759;51.282;6.642;2022-12-07T08:12:27;41.40;;;21.33;;
23181;SDS011;11759;51.282;6.642;2022-12-07T08:14:53;43.90;;;22.13;;
23181;SDS011;11759;51.282;6.642;2022-12-07T08:17:20;41.97;;;21.15;;
23181;SDS011;11759;51.282;6.642;2022-12-07T08:19:47;35.08;;;19.65;;
23181;SDS011;11759;51.282;6.642;2022-12-07T08:22:14;42.45;;;19.90;;
23181;SDS011;11759;51.282;6.642;2022-12-07T08:24:40;50.15;;;20.33;;
23181;SDS011;11759;51.282;6.642;2022-12-07T08:27:07;45.78;;;19.50;;
23181;SDS011;11759;51.282;6.642;2022-12-07T08:29:34;38.88;;;19.83;;
23181;SDS011;11759;51.282;6.642;2022-12-07T08:32:01;57.35;;;21.02;;
23181;SDS011;11759;51.282;6.642;2022-12-07T08:34:34;40.25;;;20.40;;
23181;SDS011;11759;51.282;6.642;2022-12-07T08:37:02;39.83;;;19.15;;
23181;SDS011;11759;51.282;6.642;2022-12-07T08:39:29;38.45;;;18.88;;
23181;SDS011;11759;51.282;6.642;2022-12-07T08:41:57;40.33;;;19.08;;
23181;SDS011;11759;51.282;6.642;2022-12-07T08:44:24;36.40;;;19.48;;
23181;SDS011;11759;51.282;6.642;2022-12-07T08:46:52;39.83;;;20.83;;
23181;SDS011;11759;51.282;6.642;2022-12-07T08:49:23;42.33;;;19.63;;
23181;SDS011;11759;51.282;6.642;2022-12-07T08:51:58;34.70;;;19.27;;
23181;SDS011;11759;51.282;6.642;2022-12-07T08:54:25;36.47;;;19.77;;
23181;SDS011;11759;51.282;6.642;2022-12-07T08:56:52;41.08;;;22.27;;
23181;SDS011;11759;51.282;6.642;2022-12-07T08:59:25;45.63;;;21.67;;
23181;SDS011;11759;51.282;6.642;2022-12-07T09:01:53;49.97;;;21.40;;
23181;SDS011;11759;51.282;6.642;2022-12-07T09:04:20;43.35;;;20.95;;
23181;SDS011;11759;51.282;6.642;2022-12-07T09:06:47;42.70;;;20.30;;
23181;SDS011;11759;51.282;6.642;2022-12-07T09:09:14;41.85;;;20.70;;
23181;SDS011;11759;51.282;6.642;2022-12-07T09:11:41;42.97;;;19.63;;
23181;SDS011;11759;51.282;6.642;2022-12-07T09:14:07;41.20;;;19.77;;
23181;SDS011;11759;51.282;6.642;2022-12-07T09:16:34;36.88;;;19.50;;
23181;SDS011;11759;51.282;6.642;2022-12-07T09:19:01;44.20;;;19.42;;
23181;SDS011;11759;51.282;6.642;2022-12-07T09:21:28;37.38;;;17.90;;
23181;SDS011;11759;51.282;6.642;2022-12-07T09:23:54;37.70;;;19.50;;
23181;SDS011;11759;51.282;6.642;2022-12-07T09:26:21;38.35;;;17.50;;
23181;SDS011;11759;51.282;6.642;2022-12-07T09:28:48;36.33;;;18.60;;
23181;SDS011;11759;51.282;6.642;2022-12-07T09:31:15;37.95;;;18.08;;
23181;SDS011;11759;51.282;6.642;2022-12-07T09:33:55;36.05;;;17.25;;
23181;SDS011;11759;51.282;6.642;2022-12-07T09:36:26;34.80;;;17.60;;
23181;SDS011;11759;51.282;6.642;2022-12-07T09:38:54;31.90;;;17.40;;
23181;SDS011;11759;51.282;6.642;2022-12-07T09:41:21;35.30;;;17.73;;
23181;SDS011;11759;51.282;6.642;2022-12-07T09:43:48;35.45;;;16.90;;
23181;SDS011;11759;51.282;6.642;2022-12-07T09:46:16;32.58;;;15.98;;
23181;SDS011;11759;51.282;6.642;2022-12-07T09:48:45;29.33;;;14.10;;
23181;SDS011;11759;51.282;6.642;2022-12-07T09:51:19;37.55;;;13.90;;
23181;SDS011;11759;51.282;6.642;2022-12-07T09:53:51;24.98;;;13.20;;
23181;SDS011;11759;51.282;6.642;2022-12-07T09:56:19;24.23;;;12.68;;
23181;SDS011;11759;51.282;6.642;2022-12-07T09:58:46;22.23;;;11.85;;
23181;SDS011;11759;51.282;6.642;2022-12-07T10:01:15;23.33;;;10.80;;
23181;SDS011;11759;51.282;6.642;2022-12-07T10:03:50;23.88;;;11.52;;
23181;SDS011;11759;51.282;6.642;2022-12-07T10:06:17;25.08;;;11.05;;
23181;SDS011;11759;51.282;6.642;2022-12-07T10:08:44;20.23;;;10.63;;
23181;SDS011;11759;51.282;6.642;2022-12-07T10:11:11;24.15;;;10.57;;
23181;SDS011;11759;51.282;6.642;2022-12-07T10:13:48;19.48;;;9.60;;
23181;SDS011;11759;51.282;6.642;2022-12-07T10:18:54;19.13;;;10.52;;
23181;SDS011;11759;51.282;6.642;2022-12-07T10:21:24;22.20;;;9.38;;
23181;SDS011;11759;51.282;6.642;2022-12-07T10:32:01;25.08;;;12.20;;
23181;SDS011;11759;51.282;6.642;2022-12-07T10:34:34;20.90;;;9.90;;
23181;SDS011;11759;51.282;6.642;2022-12-07T10:39:45;18.05;;;10.35;;
23181;SDS011;11759;51.282;6.642;2022-12-07T10:42:16;17.73;;;9.20;;
23181;SDS011;11759;51.282;6.642;2022-12-07T10:45:17;19.17;;;9.48;;
23181;SDS011;11759;51.282;6.642;2022-12-07T11:01:45;11.90;;;6.07;;
23181;SDS011;11759;51.282;6.642;2022-12-07T11:04:18;14.45;;;5.05;;
23181;SDS011;11759;51.282;6.642;2022-12-07T11:07:04;13.18;;;4.97;;
23181;SDS011;11759;51.282;6.642;2022-12-07T11:10:08;13.35;;;4.65;;
23181;SDS011;11759;51.282;6.642;2022-12-07T11:12:43;11.95;;;4.38;;
23181;SDS011;11759;51.282;6.642;2022-12-07T11:15:28;10.52;;;4.63;;
23181;SDS011;11759;51.282;6.642;2022-12-07T11:18:03;16.00;;;3.95;;
23181;SDS011;11759;51.282;6.642;2022-12-07T11:20:41;14.75;;;4.03;;
23181;SDS011;11759;51.282;6.642;2022-12-07T11:23:13;11.05;;;4.65;;
23181;SDS011;11759;51.282;6.642;2022-12-07T11:37:08;11.35;;;4.25;;
23181;SDS011;11759;51.282;6.642;2022-12-07T11:39:41;13.57;;;5.68;;
23181;SDS011;11759;51.282;6.642;2022-12-07T11:42:33;13.48;;;4.50;;
23181;SDS011;11759;51.282;6.642;2022-12-07T11:45:09;14.48;;;4.55;;
23181;SDS011;11759;51.282;6.642;2022-12-07T11:50:48;17.58;;;7.55;;
23181;SDS011;11759;51.282;6.642;2022-12-07T11:53:20;17.30;;;7.30;;
23181;SDS011;11759;51.282;6.642;2022-12-07T11:56:11;17.45;;;7.70;;
23181;SDS011;11759;51.282;6.642;2022-12-07T12:01:11;17.50;;;7.50;;
23181;SDS011;11759;51.282;6.642;2022-12-07T12:03:50;25.17;;;8.98;;
23181;SDS011;11759;51.282;6.642;2022-12-07T12:06:19;27.45;;;10.10;;
23181;SDS011;11759;51.282;6.642;2022-12-07T12:08:53;16.67;;;7.53;;
23181;SDS011;11759;51.282;6.642;2022-12-07T12:20:30;17.90;;;6.63;;
23181;SDS011;11759;51.282;6.642;2022-12-07T12:23:11;15.68;;;7.10;;
23181;SDS011;11759;51.282;6.642;2022-12-07T12:25:50;15.65;;;7.00;;
23181;SDS011;11759;51.282;6.642;2022-12-07T12:28:33;16.55;;;6.47;;
23181;SDS011;11759;51.282;6.642;2022-12-07T12:31:14;22.65;;;5.88;;
23181;SDS011;11759;51.282;6.642;2022-12-07T12:33:44;22.35;;;8.75;;
23181;SDS011;11759;51.282;6.642;2022-12-07T12:41:51;15.80;;;4.72;;
23181;SDS011;11759;51.282;6.642;2022-12-07T12:46:48;16.20;;;4.85;;
23181;SDS011;11759;51.282;6.642;2022-12-07T12:51:53;10.80;;;3.55;;
23181;SDS011;11759;51.282;6.642;2022-12-07T12:54:38;16.05;;;3.50;;
23181;SDS011;11759;51.282;6.642;2022-12-07T12:57:29;12.13;;;3.03;;
23181;SDS011;11759;51.282;6.642;2022-12-07T13:00:00;7.03;;;3.45;;
23181;SDS011;11759;51.282;6.642;2022-12-07T13:02:39;10.95;;;3.65;;
23181;SDS011;11759;51.282;6.642;2022-12-07T13:05:19;10.75;;;4.25;;
23181;SDS011;11759;51.282;6.642;2022-12-07T13:10:36;9.73;;;3.45;;
23181;SDS011;11759;51.282;6.642;2022-12-07T13:28:46;11.43;;;4.53;;
23181;SDS011;11759;51.282;6.642;2022-12-07T13:31:14;13.23;;;7.25;;
23181;SDS011;11759;51.282;6.642;2022-12-07T13:33:47;20.25;;;8.20;;
23181;SDS011;11759;51.282;6.642;2022-12-07T13:36:24;15.32;;;7.57;;
23181;SDS011;11759;51.282;6.642;2022-12-07T13:39:44;12.25;;;5.55;;
23181;SDS011;11759;51.282;6.642;2022-12-07T13:41:43;18.70;;;8.48;;
23181;SDS011;11759;51.282;6.642;2022-12-07T13:44:13;15.52;;;6.07;;
23181;SDS011;11759;51.282;6.642;2022-12-07T13:49:21;12.88;;;3.85;;
23181;SDS011;11759;51.282;6.642;2022-12-07T13:51:50;14.63;;;3.08;;
23181;SDS011;11759;51.282;6.642;2022-12-07T13:54:17;8.85;;;3.13;;
23181;SDS011;11759;51.282;6.642;2022-12-07T13:56:47;13.50;;;4.20;;
23181;SDS011;11759;51.282;6.642;2022-12-07T13:59:18;13.32;;;3.88;;
23181;SDS011;11759;51.282;6.642;2022-12-07T14:01:49;9.70;;;3.75;;
23181;SDS011;11759;51.282;6.642;2022-12-07T14:04:29;7.75;;;3.80;;
23181;SDS011;11759;51.282;6.642;2022-12-07T14:06:56;9.55;;;3.75;;
23181;SDS011;11759;51.282;6.642;2022-12-07T14:09:24;15.23;;;4.80;;
23181;SDS011;11759;51.282;6.642;2022-12-07T14:11:54;15.25;;;5.07;;
23181;SDS011;11759;51.282;6.642;2022-12-07T14:14:24;15.23;;;3.72;;
23181;SDS011;11759;51.282;6.642;2022-12-07T14:17:08;12.57;;;3.92;;
23181;SDS011;11759;51.282;6.642;2022-12-07T14:19:46;16.33;;;5.07;;
23181;SDS011;11759;51.282;6.642;2022-12-07T14:22:29;18.52;;;5.80;;
23181;SDS011;11759;51.282;6.642;2022-12-07T14:25:19;13.25;;;4.57;;
23181;SDS011;11759;51.282;6.642;2022-12-07T14:30:23;19.67;;;4.78;;
23181;SDS011;11759;51.282;6.642;2022-12-07T14:32:59;11.93;;;4.78;;
23181;SDS011;11759;51.282;6.642;2022-12-07T14:35:29;16.38;;;4.63;;
23181;SDS011;11759;51.282;6.642;2022-12-07T14:37:56;17.73;;;4.95;;
23181;SDS011;11759;51.282;6.642;2022-12-07T14:40:24;12.77;;;4.22;;
23181;SDS011;11759;51.282;6.642;2022-12-07T14:42:54;12.40;;;4.30;;
23181;SDS011;11759;51.282;6.642;2022-12-07T14:45:24;14.18;;;4.50;;
23181;SDS011;11759;51.282;6.642;2022-12-07T14:47:51;14.93;;;5.10;;
23181;SDS011;11759;51.282;6.642;2022-12-07T14:50:41;9.27;;;4.60;;
23181;SDS011;11759;51.282;6.642;2022-12-07T14:53:35;12.90;;;4.78;;
23181;SDS011;11759;51.282;6.642;2022-12-07T14:56:03;9.48;;;4.05;;
23181;SDS011;11759;51.282;6.642;2022-12-07T14:58:32;11.40;;;4.53;;
23181;SDS011;11759;51.282;6.642;2022-12-07T15:00:59;14.50;;;5.00;;
23181;SDS011;11759;51.282;6.642;2022-12-07T15:03:26;13.02;;;4.47;;
23181;SDS011;11759;51.282;6.642;2022-12-07T15:05:53;15.73;;;6.13;;
23181;SDS011;11759;51.282;6.642;2022-12-07T15:08:20;14.35;;;4.95;;
23181;SDS011;11759;51.282;6.642;2022-12-07T15:10:47;17.02;;;4.43;;
23181;SDS011;11759;51.282;6.642;2022-12-07T15:13:14;14.07;;;4.90;;
23181;SDS011;11759;51.282;6.642;2022-12-07T15:15:59;14.98;;;6.13;;
23181;SDS011;11759;51.282;6.642;2022-12-07T15:18:26;17.15;;;5.10;;
23181;SDS011;11759;51.282;6.642;2022-12-07T15:20:52;19.23;;;4.55;;
23181;SDS011;11759;51.282;6.642;2022-12-07T15:23:19;15.93;;;5.55;;
23181;SDS011;11759;51.282;6.642;2022-12-07T15:25:47;16.98;;;5.00;;
23181;SDS011;11759;51.282;6.642;2022-12-07T15:28:14;12.38;;;5.60;;
23181;SDS011;11759;51.282;6.642;2022-12-07T15:30:42;16.20;;;5.70;;
23181;SDS011;11759;51.282;6.642;2022-12-07T15:33:10;15.25;;;5.10;;
23181;SDS011;11759;51.282;6.642;2022-12-07T15:35:41;13.52;;;5.55;;
23181;SDS011;11759;51.282;6.642;2022-12-07T15:38:09;15.15;;;5.55;;
23181;SDS011;11759;51.282;6.642;2022-12-07T15:40:36;13.35;;;5.30;;
23181;SDS011;11759;51.282;6.642;2022-12-07T15:43:03;22.35;;;7.53;;
23181;SDS011;11759;51.282;6.642;2022-12-07T15:45:30;19.67;;;5.82;;
23181;SDS011;11759;51.282;6.642;2022-12-07T15:47:57;16.15;;;5.95;;
23181;SDS011;11759;51.282;6.642;2022-12-07T15:50:44;19.17;;;8.13;;
23181;SDS011;11759;51.282;6.642;2022-12-07T15:53:11;18.33;;;7.10;;
23181;SDS011;11759;51.282;6.642;2022-12-07T15:55:38;15.05;;;7.35;;
23181;SDS011;11759;51.282;6.642;2022-12-07T15:58:06;18.02;;;6.15;;
23181;SDS011;11759;51.282;6.642;2022-12-07T16:00:33;13.43;;;5.72;;
23181;SDS011;11759;51.282;6.642;2022-12-07T16:02:59;16.92;;;6.15;;
23181;SDS011;11759;51.282;6.642;2022-12-07T16:05:26;19.15;;;6.43;;
23181;SDS011;11759;51.282;6.642;2022-12-07T16:07:53;26.15;;;8.40;;
23181;SDS011;11759;51.282;6.642;2022-12-07T16:10:22;14.35;;;6.55;;
23181;SDS011;11759;51.282;6.642;2022-12-07T16:12:49;17.73;;;6.38;;
23181;SDS011;11759;51.282;6.642;2022-12-07T16:15:16;13.15;;;6.70;;
23181;SDS011;11759;51.282;6.642;2022-12-07T16:17:50;18.55;;;7.32;;
23181;SDS011;11759;51.282;6.642;2022-12-07T16:20:17;19.15;;;7.07;;
23181;SDS011;11759;51.282;6.642;2022-12-07T16:22:44;16.05;;;7.45;;
23181;SDS011;11759;51.282;6.642;2022-12-07T16:25:11;18.00;;;7.80;;
23181;SDS011;11759;51.282;6.642;2022-12-07T16:27:37;16.27;;;8.30;;
23181;SDS011;11759;51.282;6.642;2022-12-07T16:30:04;15.40;;;8.18;;
23181;SDS011;11759;51.282;6.642;2022-12-07T16:32:31;18.33;;;8.80;;
23181;SDS011;11759;51.282;6.642;2022-12-07T16:34:58;25.75;;;9.90;;
23181;SDS011;11759;51.282;6.642;2022-12-07T16:37:25;20.30;;;8.77;;
23181;SDS011;11759;51.282;6.642;2022-12-07T16:39:52;24.02;;;8.18;;
23181;SDS011;11759;51.282;6.642;2022-12-07T16:42:19;23.85;;;8.02;;
23181;SDS011;11759;51.282;6.642;2022-12-07T16:44:46;24.25;;;8.70;;